sensor_id;sensor_type;location;lat;lon;timestamp;P1;durP1;ratioP1;P2;durP2;ratioP2
34035;SDS011;63481;52.588;22.472;2023-02-24T00:00:20;32.20;;;20.80;;
34035;SDS011;63481;52.588;22.472;2023-02-24T00:01:29;34.60;;;21.10;;
34035;SDS011;63481;52.588;22.472;2023-02-24T00:02:28;33.10;;;20.90;;
34035;SDS011;63481;52.588;22.472;2023-02-24T00:03:21;35.50;;;20.80;;
34035;SDS011;63481;52.588;22.472;2023-02-24T00:04:13;34.90;;;21.90;;
34035;SDS011;63481;52.588;22.472;2023-02-24T00:05:06;34.90;;;21.60;;
34035;SDS011;63481;52.588;22.472;2023-02-24T00:05:59;36.70;;;22.60;;
34035;SDS011;63481;52.588;22.472;2023-02-24T00:06:54;33.60;;;21.10;;
34035;SDS011;63481;52.588;22.472;2023-02-24T00:07:48;34.50;;;21.60;;
34035;SDS011;63481;52.588;22.472;2023-02-24T00:08:41;34.40;;;22.10;;
34035;SDS011;63481;52.588;22.472;2023-02-24T00:09:33;35.40;;;22.00;;
34035;SDS011;63481;52.588;22.472;2023-02-24T00:10:26;34.30;;;22.00;;
34035;SDS011;63481;52.588;22.472;2023-02-24T00:11:19;34.00;;;22.10;;
34035;SDS011;63481;52.588;22.472;2023-02-24T00:12:13;37.40;;;22.50;;
34035;SDS011;63481;52.588;22.472;2023-02-24T00:13:07;35.10;;;21.70;;
34035;SDS011;63481;52.588;22.472;2023-02-24T00:14:00;38.50;;;22.10;;
34035;SDS011;63481;52.588;22.472;2023-02-24T00:14:56;36.00;;;22.90;;
34035;SDS011;63481;52.588;22.472;2023-02-24T00:16:02;32.60;;;21.00;;
34035;SDS011;63481;52.588;22.472;2023-02-24T00:16:56;33.40;;;21.70;;
34035;SDS011;63481;52.588;22.472;2023-02-24T00:17:52;40.50;;;22.40;;
34035;SDS011;63481;52.588;22.472;2023-02-24T00:18:44;36.80;;;21.90;;
34035;SDS011;63481;52.588;22.472;2023-02-24T00:19:37;37.80;;;22.60;;
34035;SDS011;63481;52.588;22.472;2023-02-24T00:20:30;36.10;;;22.10;;
34035;SDS011;63481;52.588;22.472;2023-02-24T00:21:24;39.00;;;22.80;;
34035;SDS011;63481;52.588;22.472;2023-02-24T00:22:17;36.50;;;21.60;;
34035;SDS011;63481;52.588;22.472;2023-02-24T00:23:11;34.30;;;22.80;;
34035;SDS011;63481;52.588;22.472;2023-02-24T00:24:04;38.10;;;22.90;;
34035;SDS011;63481;52.588;22.472;2023-02-24T00:24:57;38.10;;;22.50;;
34035;SDS011;63481;52.588;22.472;2023-02-24T00:25:59;34.80;;;22.00;;
34035;SDS011;63481;52.588;22.472;2023-02-24T00:26:52;37.40;;;23.10;;
34035;SDS011;63481;52.588;22.472;2023-02-24T00:27:51;37.00;;;22.50;;
34035;SDS011;63481;52.588;22.472;2023-02-24T00:28:46;34.70;;;21.60;;
34035;SDS011;63481;52.588;22.472;2023-02-24T00:29:39;35.00;;;22.90;;
34035;SDS011;63481;52.588;22.472;2023-02-24T00:30:33;34.30;;;22.40;;
34035;SDS011;63481;52.588;22.472;2023-02-24T00:31:26;34.40;;;22.10;;
34035;SDS011;63481;52.588;22.472;2023-02-24T00:32:22;39.90;;;23.60;;
34035;SDS011;63481;52.588;22.472;2023-02-24T00:33:15;39.80;;;23.30;;
34035;SDS011;63481;52.588;22.472;2023-02-24T00:34:07;38.20;;;23.50;;
34035;SDS011;63481;52.588;22.472;2023-02-24T00:35:01;37.10;;;22.10;;
34035;SDS011;63481;52.588;22.472;2023-02-24T00:35:54;34.80;;;22.50;;
34035;SDS011;63481;52.588;22.472;2023-02-24T00:36:47;43.50;;;23.90;;
34035;SDS011;63481;52.588;22.472;2023-02-24T00:37:40;37.00;;;22.90;;
34035;SDS011;63481;52.588;22.472;2023-02-24T00:38:33;37.20;;;22.80;;
34035;SDS011;63481;52.588;22.472;2023-02-24T00:39:27;40.60;;;23.70;;
34035;SDS011;63481;52.588;22.472;2023-02-24T00:40:26;37.00;;;23.50;;
34035;SDS011;63481;52.588;22.472;2023-02-24T00:41:24;34.50;;;21.80;;
34035;SDS011;63481;52.588;22.472;2023-02-24T00:42:22;37.80;;;23.30;;
34035;SDS011;63481;52.588;22.472;2023-02-24T00:43:14;39.20;;;23.80;;
34035;SDS011;63481;52.588;22.472;2023-02-24T00:44:08;37.00;;;23.00;;
34035;SDS011;63481;52.588;22.472;2023-02-24T00:45:03;35.90;;;22.80;;
34035;SDS011;63481;52.588;22.472;2023-02-24T00:46:01;37.10;;;22.00;;
34035;SDS011;63481;52.588;22.472;2023-02-24T00:47:05;35.30;;;22.60;;
34035;SDS011;63481;52.588;22.472;2023-02-24T00:47:59;39.60;;;22.80;;
34035;SDS011;63481;52.588;22.472;2023-02-24T00:48:52;36.20;;;23.80;;
34035;SDS011;63481;52.588;22.472;2023-02-24T00:49:46;37.40;;;23.00;;
34035;SDS011;63481;52.588;22.472;2023-02-24T00:50:41;36.70;;;23.00;;
34035;SDS011;63481;52.588;22.472;2023-02-24T00:51:35;39.70;;;22.80;;
34035;SDS011;63481;52.588;22.472;2023-02-24T00:52:30;36.40;;;22.20;;
34035;SDS011;63481;52.588;22.472;2023-02-24T00:53:24;42.30;;;23.50;;
34035;SDS011;63481;52.588;22.472;2023-02-24T00:54:20;38.40;;;23.30;;
34035;SDS011;63481;52.588;22.472;2023-02-24T00:55:16;37.80;;;23.30;;
34035;SDS011;63481;52.588;22.472;2023-02-24T00:56:10;37.70;;;23.50;;
34035;SDS011;63481;52.588;22.472;2023-02-24T00:57:03;43.20;;;23.90;;
34035;SDS011;63481;52.588;22.472;2023-02-24T00:57:59;39.00;;;24.20;;
34035;SDS011;63481;52.588;22.472;2023-02-24T00:58:52;37.50;;;22.90;;
34035;SDS011;63481;52.588;22.472;2023-02-24T00:59:46;45.10;;;24.70;;
34035;SDS011;63481;52.588;22.472;2023-02-24T01:00:39;36.70;;;22.90;;
34035;SDS011;63481;52.588;22.472;2023-02-24T01:01:34;39.90;;;24.30;;
34035;SDS011;63481;52.588;22.472;2023-02-24T01:02:27;39.40;;;23.30;;
34035;SDS011;63481;52.588;22.472;2023-02-24T01:03:20;39.10;;;23.80;;
34035;SDS011;63481;52.588;22.472;2023-02-24T01:04:13;40.10;;;24.30;;
34035;SDS011;63481;52.588;22.472;2023-02-24T01:05:10;37.40;;;23.80;;
34035;SDS011;63481;52.588;22.472;2023-02-24T01:06:04;37.70;;;24.00;;
34035;SDS011;63481;52.588;22.472;2023-02-24T01:06:57;35.20;;;24.00;;
34035;SDS011;63481;52.588;22.472;2023-02-24T01:07:53;40.00;;;23.70;;
34035;SDS011;63481;52.588;22.472;2023-02-24T01:08:47;38.40;;;24.10;;
34035;SDS011;63481;52.588;22.472;2023-02-24T01:09:41;37.80;;;24.60;;
34035;SDS011;63481;52.588;22.472;2023-02-24T01:10:35;38.00;;;24.80;;
34035;SDS011;63481;52.588;22.472;2023-02-24T01:11:31;37.00;;;24.20;;
34035;SDS011;63481;52.588;22.472;2023-02-24T01:12:45;39.70;;;24.10;;
34035;SDS011;63481;52.588;22.472;2023-02-24T01:13:41;37.80;;;22.60;;
34035;SDS011;63481;52.588;22.472;2023-02-24T01:14:35;42.00;;;24.90;;
34035;SDS011;63481;52.588;22.472;2023-02-24T01:15:28;37.90;;;23.90;;
34035;SDS011;63481;52.588;22.472;2023-02-24T01:16:22;38.50;;;23.40;;
34035;SDS011;63481;52.588;22.472;2023-02-24T01:17:17;41.10;;;24.80;;
34035;SDS011;63481;52.588;22.472;2023-02-24T01:18:11;39.50;;;23.20;;
34035;SDS011;63481;52.588;22.472;2023-02-24T01:19:04;37.90;;;24.20;;
34035;SDS011;63481;52.588;22.472;2023-02-24T01:19:58;37.50;;;24.30;;
34035;SDS011;63481;52.588;22.472;2023-02-24T01:20:52;41.90;;;24.50;;
34035;SDS011;63481;52.588;22.472;2023-02-24T01:21:46;45.20;;;25.10;;
34035;SDS011;63481;52.588;22.472;2023-02-24T01:22:49;38.40;;;23.70;;
34035;SDS011;63481;52.588;22.472;2023-02-24T01:23:48;36.60;;;24.10;;
34035;SDS011;63481;52.588;22.472;2023-02-24T01:24:42;40.30;;;24.70;;
34035;SDS011;63481;52.588;22.472;2023-02-24T01:25:35;40.40;;;23.80;;
34035;SDS011;63481;52.588;22.472;2023-02-24T01:26:28;40.90;;;24.80;;
34035;SDS011;63481;52.588;22.472;2023-02-24T01:27:22;40.60;;;23.50;;
34035;SDS011;63481;52.588;22.472;2023-02-24T01:28:14;36.80;;;23.90;;
34035;SDS011;63481;52.588;22.472;2023-02-24T01:29:07;38.70;;;24.00;;
34035;SDS011;63481;52.588;22.472;2023-02-24T01:30:02;39.00;;;22.80;;
34035;SDS011;63481;52.588;22.472;2023-02-24T01:31:04;42.00;;;23.00;;
34035;SDS011;63481;52.588;22.472;2023-02-24T01:31:57;38.80;;;23.90;;
34035;SDS011;63481;52.588;22.472;2023-02-24T01:32:51;40.90;;;24.00;;
34035;SDS011;63481;52.588;22.472;2023-02-24T01:33:45;41.40;;;24.30;;
34035;SDS011;63481;52.588;22.472;2023-02-24T01:34:38;38.80;;;24.70;;
34035;SDS011;63481;52.588;22.472;2023-02-24T01:35:34;42.50;;;25.20;;
34035;SDS011;63481;52.588;22.472;2023-02-24T01:36:27;38.30;;;24.90;;
34035;SDS011;63481;52.588;22.472;2023-02-24T01:37:20;40.20;;;24.50;;
34035;SDS011;63481;52.588;22.472;2023-02-24T01:38:14;40.70;;;25.20;;
34035;SDS011;63481;52.588;22.472;2023-02-24T01:39:14;40.50;;;24.50;;
34035;SDS011;63481;52.588;22.472;2023-02-24T01:40:09;39.80;;;24.80;;
34035;SDS011;63481;52.588;22.472;2023-02-24T01:41:10;41.10;;;24.70;;
34035;SDS011;63481;52.588;22.472;2023-02-24T01:42:24;36.50;;;23.50;;
34035;SDS011;63481;52.588;22.472;2023-02-24T01:43:17;40.00;;;24.40;;
34035;SDS011;63481;52.588;22.472;2023-02-24T01:45:15;40.40;;;24.10;;
34035;SDS011;63481;52.588;22.472;2023-02-24T01:46:10;38.20;;;23.50;;
34035;SDS011;63481;52.588;22.472;2023-02-24T01:47:04;39.40;;;23.80;;
34035;SDS011;63481;52.588;22.472;2023-02-24T01:47:59;39.20;;;23.40;;
34035;SDS011;63481;52.588;22.472;2023-02-24T01:48:55;39.40;;;24.60;;
34035;SDS011;63481;52.588;22.472;2023-02-24T01:49:52;39.60;;;23.70;;
34035;SDS011;63481;52.588;22.472;2023-02-24T01:50:46;36.90;;;23.60;;
34035;SDS011;63481;52.588;22.472;2023-02-24T01:53:10;39.70;;;23.30;;
34035;SDS011;63481;52.588;22.472;2023-02-24T01:54:05;36.50;;;23.90;;
34035;SDS011;63481;52.588;22.472;2023-02-24T01:55:06;36.70;;;23.90;;
34035;SDS011;63481;52.588;22.472;2023-02-24T01:56:05;36.30;;;22.90;;
34035;SDS011;63481;52.588;22.472;2023-02-24T01:56:59;39.70;;;24.40;;
34035;SDS011;63481;52.588;22.472;2023-02-24T01:57:57;45.80;;;25.40;;
34035;SDS011;63481;52.588;22.472;2023-02-24T01:58:53;40.60;;;23.90;;
34035;SDS011;63481;52.588;22.472;2023-02-24T01:59:48;41.70;;;25.30;;
34035;SDS011;63481;52.588;22.472;2023-02-24T02:00:45;42.20;;;25.00;;
34035;SDS011;63481;52.588;22.472;2023-02-24T02:01:39;41.60;;;24.10;;
34035;SDS011;63481;52.588;22.472;2023-02-24T02:02:32;42.40;;;25.30;;
34035;SDS011;63481;52.588;22.472;2023-02-24T02:03:27;42.40;;;25.90;;
34035;SDS011;63481;52.588;22.472;2023-02-24T02:04:37;36.10;;;23.20;;
34035;SDS011;63481;52.588;22.472;2023-02-24T02:05:31;36.10;;;23.00;;
34035;SDS011;63481;52.588;22.472;2023-02-24T02:06:24;44.20;;;25.60;;
34035;SDS011;63481;52.588;22.472;2023-02-24T02:07:20;41.10;;;25.30;;
34035;SDS011;63481;52.588;22.472;2023-02-24T02:08:15;41.00;;;25.70;;
34035;SDS011;63481;52.588;22.472;2023-02-24T02:09:10;41.70;;;24.80;;
34035;SDS011;63481;52.588;22.472;2023-02-24T02:10:07;38.10;;;24.20;;
34035;SDS011;63481;52.588;22.472;2023-02-24T02:11:03;42.40;;;23.60;;
34035;SDS011;63481;52.588;22.472;2023-02-24T02:11:59;35.70;;;23.50;;
34035;SDS011;63481;52.588;22.472;2023-02-24T02:12:52;39.00;;;24.80;;
34035;SDS011;63481;52.588;22.472;2023-02-24T02:13:47;37.60;;;25.60;;
34035;SDS011;63481;52.588;22.472;2023-02-24T02:14:43;42.20;;;25.80;;
34035;SDS011;63481;52.588;22.472;2023-02-24T02:15:46;40.10;;;24.40;;
34035;SDS011;63481;52.588;22.472;2023-02-24T02:23:56;45.00;;;23.10;;
34035;SDS011;63481;52.588;22.472;2023-02-24T02:24:54;38.50;;;24.40;;
34035;SDS011;63481;52.588;22.472;2023-02-24T02:29:49;42.70;;;25.40;;
34035;SDS011;63481;52.588;22.472;2023-02-24T02:31:04;40.10;;;24.30;;
34035;SDS011;63481;52.588;22.472;2023-02-24T02:32:16;42.20;;;24.70;;
34035;SDS011;63481;52.588;22.472;2023-02-24T02:35:58;40.70;;;24.60;;
34035;SDS011;63481;52.588;22.472;2023-02-24T02:38:19;38.50;;;24.00;;
34035;SDS011;63481;52.588;22.472;2023-02-24T02:43:27;40.30;;;24.70;;
34035;SDS011;63481;52.588;22.472;2023-02-24T02:46:14;40.10;;;23.50;;
34035;SDS011;63481;52.588;22.472;2023-02-24T02:47:33;40.90;;;25.80;;
34035;SDS011;63481;52.588;22.472;2023-02-24T02:48:45;41.40;;;23.10;;
34035;SDS011;63481;52.588;22.472;2023-02-24T02:49:41;38.70;;;24.70;;
34035;SDS011;63481;52.588;22.472;2023-02-24T02:50:51;45.70;;;27.10;;
34035;SDS011;63481;52.588;22.472;2023-02-24T02:51:50;44.50;;;26.70;;
34035;SDS011;63481;52.588;22.472;2023-02-24T02:52:50;44.70;;;24.70;;
34035;SDS011;63481;52.588;22.472;2023-02-24T02:53:51;40.20;;;24.90;;
34035;SDS011;63481;52.588;22.472;2023-02-24T02:54:59;41.50;;;25.30;;
34035;SDS011;63481;52.588;22.472;2023-02-24T02:56:06;40.50;;;25.90;;
34035;SDS011;63481;52.588;22.472;2023-02-24T02:57:10;37.20;;;25.00;;
34035;SDS011;63481;52.588;22.472;2023-02-24T02:58:15;37.00;;;24.30;;
34035;SDS011;63481;52.588;22.472;2023-02-24T02:59:12;37.70;;;25.60;;
34035;SDS011;63481;52.588;22.472;2023-02-24T03:00:20;41.00;;;25.00;;
34035;SDS011;63481;52.588;22.472;2023-02-24T03:01:21;41.90;;;25.00;;
34035;SDS011;63481;52.588;22.472;2023-02-24T03:02:20;39.70;;;24.80;;
34035;SDS011;63481;52.588;22.472;2023-02-24T03:03:21;38.50;;;24.40;;
34035;SDS011;63481;52.588;22.472;2023-02-24T03:04:18;44.20;;;24.70;;
34035;SDS011;63481;52.588;22.472;2023-02-24T03:05:15;42.80;;;24.90;;
34035;SDS011;63481;52.588;22.472;2023-02-24T03:06:14;39.60;;;25.20;;
34035;SDS011;63481;52.588;22.472;2023-02-24T03:07:23;40.00;;;24.70;;
34035;SDS011;63481;52.588;22.472;2023-02-24T03:08:23;43.70;;;25.20;;
34035;SDS011;63481;52.588;22.472;2023-02-24T03:09:31;39.80;;;24.60;;
34035;SDS011;63481;52.588;22.472;2023-02-24T03:10:29;38.50;;;23.80;;
34035;SDS011;63481;52.588;22.472;2023-02-24T03:11:25;40.10;;;24.10;;
34035;SDS011;63481;52.588;22.472;2023-02-24T03:12:20;40.40;;;24.80;;
34035;SDS011;63481;52.588;22.472;2023-02-24T03:13:20;40.70;;;25.30;;
34035;SDS011;63481;52.588;22.472;2023-02-24T03:14:17;41.00;;;24.00;;
34035;SDS011;63481;52.588;22.472;2023-02-24T03:15:15;43.00;;;26.40;;
34035;SDS011;63481;52.588;22.472;2023-02-24T03:16:12;37.40;;;23.50;;
34035;SDS011;63481;52.588;22.472;2023-02-24T03:17:11;38.50;;;24.10;;
34035;SDS011;63481;52.588;22.472;2023-02-24T03:18:14;39.80;;;24.50;;
34035;SDS011;63481;52.588;22.472;2023-02-24T03:19:11;37.20;;;24.80;;
34035;SDS011;63481;52.588;22.472;2023-02-24T03:20:20;39.40;;;25.00;;
34035;SDS011;63481;52.588;22.472;2023-02-24T03:21:32;48.70;;;25.00;;
34035;SDS011;63481;52.588;22.472;2023-02-24T03:22:35;39.50;;;24.40;;
34035;SDS011;63481;52.588;22.472;2023-02-24T03:23:34;35.70;;;23.40;;
34035;SDS011;63481;52.588;22.472;2023-02-24T03:24:31;39.20;;;24.40;;
34035;SDS011;63481;52.588;22.472;2023-02-24T03:25:32;37.80;;;24.90;;
34035;SDS011;63481;52.588;22.472;2023-02-24T03:29:47;35.10;;;24.20;;
34035;SDS011;63481;52.588;22.472;2023-02-24T03:30:47;38.80;;;23.90;;
34035;SDS011;63481;52.588;22.472;2023-02-24T03:31:54;42.60;;;23.30;;
34035;SDS011;63481;52.588;22.472;2023-02-24T03:32:55;40.20;;;24.20;;
34035;SDS011;63481;52.588;22.472;2023-02-24T03:34:05;36.80;;;24.40;;
34035;SDS011;63481;52.588;22.472;2023-02-24T03:35:09;39.40;;;24.30;;
34035;SDS011;63481;52.588;22.472;2023-02-24T03:36:08;39.20;;;24.80;;
34035;SDS011;63481;52.588;22.472;2023-02-24T03:37:05;37.40;;;24.00;;
34035;SDS011;63481;52.588;22.472;2023-02-24T03:37:58;40.70;;;25.00;;
34035;SDS011;63481;52.588;22.472;2023-02-24T03:38:54;44.60;;;26.50;;
34035;SDS011;63481;52.588;22.472;2023-02-24T03:39:49;41.90;;;24.40;;
34035;SDS011;63481;52.588;22.472;2023-02-24T03:40:47;40.10;;;24.90;;
34035;SDS011;63481;52.588;22.472;2023-02-24T03:41:48;43.00;;;25.10;;
34035;SDS011;63481;52.588;22.472;2023-02-24T03:42:49;42.60;;;24.00;;
34035;SDS011;63481;52.588;22.472;2023-02-24T03:43:48;40.00;;;24.30;;
34035;SDS011;63481;52.588;22.472;2023-02-24T03:44:43;38.90;;;24.10;;
34035;SDS011;63481;52.588;22.472;2023-02-24T03:45:37;38.50;;;24.90;;
34035;SDS011;63481;52.588;22.472;2023-02-24T03:46:31;40.80;;;23.90;;
34035;SDS011;63481;52.588;22.472;2023-02-24T03:47:26;39.30;;;24.20;;
34035;SDS011;63481;52.588;22.472;2023-02-24T03:48:19;37.10;;;24.60;;
34035;SDS011;63481;52.588;22.472;2023-02-24T03:49:14;35.80;;;24.70;;
34035;SDS011;63481;52.588;22.472;2023-02-24T03:50:13;41.30;;;25.30;;
34035;SDS011;63481;52.588;22.472;2023-02-24T03:51:14;38.70;;;23.70;;
34035;SDS011;63481;52.588;22.472;2023-02-24T03:53:32;41.50;;;25.40;;
34035;SDS011;63481;52.588;22.472;2023-02-24T03:57:34;39.70;;;24.40;;
34035;SDS011;63481;52.588;22.472;2023-02-24T04:00:07;44.30;;;26.10;;
34035;SDS011;63481;52.588;22.472;2023-02-24T04:02:37;35.80;;;23.20;;
34035;SDS011;63481;52.588;22.472;2023-02-24T04:04:41;40.70;;;24.90;;
34035;SDS011;63481;52.588;22.472;2023-02-24T04:05:46;41.10;;;25.20;;
34035;SDS011;63481;52.588;22.472;2023-02-24T04:07:03;38.80;;;24.20;;
34035;SDS011;63481;52.588;22.472;2023-02-24T04:08:36;43.20;;;25.20;;
34035;SDS011;63481;52.588;22.472;2023-02-24T04:10:59;40.30;;;25.40;;
34035;SDS011;63481;52.588;22.472;2023-02-24T04:12:17;36.20;;;24.10;;
34035;SDS011;63481;52.588;22.472;2023-02-24T04:13:44;36.60;;;23.90;;
34035;SDS011;63481;52.588;22.472;2023-02-24T04:14:52;38.50;;;23.50;;
34035;SDS011;63481;52.588;22.472;2023-02-24T04:15:51;38.80;;;24.10;;
34035;SDS011;63481;52.588;22.472;2023-02-24T04:18:07;38.40;;;25.40;;
34035;SDS011;63481;52.588;22.472;2023-02-24T04:19:08;37.70;;;24.60;;
34035;SDS011;63481;52.588;22.472;2023-02-24T04:20:07;40.20;;;25.50;;
34035;SDS011;63481;52.588;22.472;2023-02-24T04:21:10;40.30;;;24.40;;
34035;SDS011;63481;52.588;22.472;2023-02-24T04:22:04;42.50;;;24.80;;
34035;SDS011;63481;52.588;22.472;2023-02-24T04:23:05;40.20;;;25.40;;
34035;SDS011;63481;52.588;22.472;2023-02-24T04:24:10;41.20;;;25.90;;
34035;SDS011;63481;52.588;22.472;2023-02-24T04:25:08;37.80;;;24.40;;
34035;SDS011;63481;52.588;22.472;2023-02-24T04:26:05;39.50;;;25.50;;
34035;SDS011;63481;52.588;22.472;2023-02-24T04:27:01;42.10;;;25.10;;
34035;SDS011;63481;52.588;22.472;2023-02-24T04:27:59;37.70;;;25.00;;
34035;SDS011;63481;52.588;22.472;2023-02-24T04:28:54;39.10;;;24.00;;
34035;SDS011;63481;52.588;22.472;2023-02-24T04:29:50;48.40;;;27.60;;
34035;SDS011;63481;52.588;22.472;2023-02-24T04:30:46;46.90;;;26.90;;
34035;SDS011;63481;52.588;22.472;2023-02-24T04:31:44;42.30;;;27.00;;
34035;SDS011;63481;52.588;22.472;2023-02-24T04:32:39;41.10;;;25.70;;
34035;SDS011;63481;52.588;22.472;2023-02-24T04:33:35;39.50;;;26.60;;
34035;SDS011;63481;52.588;22.472;2023-02-24T04:34:32;38.70;;;26.20;;
34035;SDS011;63481;52.588;22.472;2023-02-24T04:35:26;43.80;;;25.90;;
34035;SDS011;63481;52.588;22.472;2023-02-24T04:36:19;42.80;;;27.80;;
34035;SDS011;63481;52.588;22.472;2023-02-24T04:37:13;45.10;;;26.70;;
34035;SDS011;63481;52.588;22.472;2023-02-24T04:38:06;40.90;;;26.20;;
34035;SDS011;63481;52.588;22.472;2023-02-24T04:38:59;42.40;;;26.20;;
34035;SDS011;63481;52.588;22.472;2023-02-24T04:39:51;40.30;;;26.50;;
34035;SDS011;63481;52.588;22.472;2023-02-24T04:40:51;41.00;;;26.40;;
34035;SDS011;63481;52.588;22.472;2023-02-24T04:41:44;46.50;;;27.70;;
34035;SDS011;63481;52.588;22.472;2023-02-24T04:42:42;43.10;;;27.20;;
34035;SDS011;63481;52.588;22.472;2023-02-24T04:43:40;44.10;;;28.20;;
34035;SDS011;63481;52.588;22.472;2023-02-24T04:44:32;39.40;;;27.40;;
34035;SDS011;63481;52.588;22.472;2023-02-24T04:45:27;43.10;;;27.50;;
34035;SDS011;63481;52.588;22.472;2023-02-24T04:46:21;39.60;;;27.40;;
34035;SDS011;63481;52.588;22.472;2023-02-24T04:47:14;48.80;;;29.10;;
34035;SDS011;63481;52.588;22.472;2023-02-24T04:48:07;44.60;;;29.30;;
34035;SDS011;63481;52.588;22.472;2023-02-24T04:49:04;45.40;;;28.20;;
34035;SDS011;63481;52.588;22.472;2023-02-24T04:49:56;44.20;;;27.00;;
34035;SDS011;63481;52.588;22.472;2023-02-24T04:50:49;45.20;;;28.50;;
34035;SDS011;63481;52.588;22.472;2023-02-24T04:51:46;46.80;;;29.40;;
34035;SDS011;63481;52.588;22.472;2023-02-24T04:52:38;49.10;;;29.60;;
34035;SDS011;63481;52.588;22.472;2023-02-24T04:53:31;47.80;;;30.00;;
34035;SDS011;63481;52.588;22.472;2023-02-24T04:54:25;44.10;;;28.40;;
34035;SDS011;63481;52.588;22.472;2023-02-24T04:55:20;47.40;;;30.20;;
34035;SDS011;63481;52.588;22.472;2023-02-24T04:56:15;43.40;;;28.10;;
34035;SDS011;63481;52.588;22.472;2023-02-24T04:57:09;46.30;;;28.40;;
34035;SDS011;63481;52.588;22.472;2023-02-24T04:58:04;42.70;;;27.60;;
34035;SDS011;63481;52.588;22.472;2023-02-24T04:58:57;44.30;;;28.10;;
34035;SDS011;63481;52.588;22.472;2023-02-24T04:59:50;49.90;;;30.30;;
34035;SDS011;63481;52.588;22.472;2023-02-24T05:00:46;44.30;;;28.00;;
34035;SDS011;63481;52.588;22.472;2023-02-24T05:01:40;45.30;;;28.90;;
34035;SDS011;63481;52.588;22.472;2023-02-24T05:02:35;43.60;;;29.60;;
34035;SDS011;63481;52.588;22.472;2023-02-24T05:03:29;45.10;;;29.80;;
34035;SDS011;63481;52.588;22.472;2023-02-24T05:04:21;43.50;;;29.60;;
34035;SDS011;63481;52.588;22.472;2023-02-24T05:05:16;45.30;;;30.50;;
34035;SDS011;63481;52.588;22.472;2023-02-24T05:06:16;48.50;;;30.70;;
34035;SDS011;63481;52.588;22.472;2023-02-24T05:07:09;52.30;;;31.20;;
34035;SDS011;63481;52.588;22.472;2023-02-24T05:08:05;48.90;;;30.50;;
34035;SDS011;63481;52.588;22.472;2023-02-24T05:09:00;51.00;;;30.90;;
34035;SDS011;63481;52.588;22.472;2023-02-24T05:09:52;48.90;;;31.60;;
34035;SDS011;63481;52.588;22.472;2023-02-24T05:10:46;50.00;;;31.70;;
34035;SDS011;63481;52.588;22.472;2023-02-24T05:11:42;51.30;;;33.20;;
34035;SDS011;63481;52.588;22.472;2023-02-24T05:12:36;50.90;;;32.60;;
34035;SDS011;63481;52.588;22.472;2023-02-24T05:13:31;46.40;;;31.80;;
34035;SDS011;63481;52.588;22.472;2023-02-24T05:14:24;48.30;;;31.20;;
34035;SDS011;63481;52.588;22.472;2023-02-24T05:15:17;52.10;;;32.30;;
34035;SDS011;63481;52.588;22.472;2023-02-24T05:16:11;54.20;;;33.70;;
34035;SDS011;63481;52.588;22.472;2023-02-24T05:17:06;49.90;;;31.20;;
34035;SDS011;63481;52.588;22.472;2023-02-24T05:18:00;52.00;;;33.10;;
34035;SDS011;63481;52.588;22.472;2023-02-24T05:18:58;49.20;;;32.60;;
34035;SDS011;63481;52.588;22.472;2023-02-24T05:20:10;46.60;;;31.00;;
34035;SDS011;63481;52.588;22.472;2023-02-24T05:21:22;51.20;;;31.80;;
34035;SDS011;63481;52.588;22.472;2023-02-24T05:22:27;51.90;;;33.80;;
34035;SDS011;63481;52.588;22.472;2023-02-24T05:23:23;51.00;;;32.10;;
34035;SDS011;63481;52.588;22.472;2023-02-24T05:24:17;49.80;;;33.00;;
34035;SDS011;63481;52.588;22.472;2023-02-24T05:25:10;54.90;;;33.50;;
34035;SDS011;63481;52.588;22.472;2023-02-24T05:26:06;53.20;;;34.10;;
34035;SDS011;63481;52.588;22.472;2023-02-24T05:27:00;58.30;;;31.20;;
34035;SDS011;63481;52.588;22.472;2023-02-24T05:27:54;54.40;;;33.80;;
34035;SDS011;63481;52.588;22.472;2023-02-24T05:28:48;47.00;;;32.10;;
34035;SDS011;63481;52.588;22.472;2023-02-24T05:29:43;52.90;;;34.20;;
34035;SDS011;63481;52.588;22.472;2023-02-24T05:30:36;50.10;;;33.70;;
34035;SDS011;63481;52.588;22.472;2023-02-24T05:31:29;58.10;;;34.90;;
34035;SDS011;63481;52.588;22.472;2023-02-24T05:32:22;58.00;;;35.00;;
34035;SDS011;63481;52.588;22.472;2023-02-24T05:33:16;56.60;;;35.90;;
34035;SDS011;63481;52.588;22.472;2023-02-24T05:34:12;56.90;;;34.90;;
34035;SDS011;63481;52.588;22.472;2023-02-24T05:35:08;50.10;;;34.10;;
34035;SDS011;63481;52.588;22.472;2023-02-24T05:36:06;50.60;;;34.20;;
34035;SDS011;63481;52.588;22.472;2023-02-24T05:37:01;60.40;;;36.20;;
34035;SDS011;63481;52.588;22.472;2023-02-24T05:38:01;56.00;;;35.60;;
34035;SDS011;63481;52.588;22.472;2023-02-24T05:38:55;54.10;;;35.00;;
34035;SDS011;63481;52.588;22.472;2023-02-24T05:39:58;56.60;;;34.70;;
34035;SDS011;63481;52.588;22.472;2023-02-24T05:40:51;54.70;;;36.40;;
34035;SDS011;63481;52.588;22.472;2023-02-24T05:41:48;62.70;;;35.80;;
34035;SDS011;63481;52.588;22.472;2023-02-24T05:42:42;59.70;;;37.30;;
34035;SDS011;63481;52.588;22.472;2023-02-24T05:43:37;54.00;;;36.60;;
34035;SDS011;63481;52.588;22.472;2023-02-24T05:44:31;58.30;;;37.10;;
34035;SDS011;63481;52.588;22.472;2023-02-24T05:45:23;57.90;;;38.20;;
34035;SDS011;63481;52.588;22.472;2023-02-24T05:46:21;61.40;;;37.90;;
34035;SDS011;63481;52.588;22.472;2023-02-24T05:47:20;62.40;;;39.50;;
34035;SDS011;63481;52.588;22.472;2023-02-24T05:48:14;61.90;;;38.80;;
34035;SDS011;63481;52.588;22.472;2023-02-24T05:49:12;63.60;;;38.50;;
34035;SDS011;63481;52.588;22.472;2023-02-24T05:50:07;62.60;;;39.30;;
34035;SDS011;63481;52.588;22.472;2023-02-24T05:51:01;63.20;;;37.40;;
34035;SDS011;63481;52.588;22.472;2023-02-24T05:51:55;58.00;;;38.50;;
34035;SDS011;63481;52.588;22.472;2023-02-24T05:52:52;62.80;;;40.10;;
34035;SDS011;63481;52.588;22.472;2023-02-24T05:53:47;63.10;;;40.60;;
34035;SDS011;63481;52.588;22.472;2023-02-24T05:54:40;67.30;;;39.10;;
34035;SDS011;63481;52.588;22.472;2023-02-24T05:55:34;67.30;;;42.70;;
34035;SDS011;63481;52.588;22.472;2023-02-24T05:56:27;65.20;;;40.40;;
34035;SDS011;63481;52.588;22.472;2023-02-24T05:57:20;64.50;;;41.30;;
34035;SDS011;63481;52.588;22.472;2023-02-24T05:58:16;69.40;;;39.80;;
34035;SDS011;63481;52.588;22.472;2023-02-24T05:59:09;70.00;;;43.10;;
34035;SDS011;63481;52.588;22.472;2023-02-24T06:00:03;66.80;;;39.00;;
34035;SDS011;63481;52.588;22.472;2023-02-24T06:01:11;62.00;;;39.90;;
34035;SDS011;63481;52.588;22.472;2023-02-24T06:02:08;68.40;;;42.30;;
34035;SDS011;63481;52.588;22.472;2023-02-24T06:03:04;63.30;;;40.10;;
34035;SDS011;63481;52.588;22.472;2023-02-24T06:04:08;59.70;;;38.80;;
34035;SDS011;63481;52.588;22.472;2023-02-24T06:05:01;62.60;;;40.50;;
34035;SDS011;63481;52.588;22.472;2023-02-24T06:05:58;66.80;;;40.10;;
34035;SDS011;63481;52.588;22.472;2023-02-24T06:06:56;59.70;;;39.60;;